createdAt,value
2019-05-21T00:00:40.000Z,7.57
2019-05-21T00:03:08.681Z,7.67
2019-05-21T00:05:37.179Z,9.10
2019-05-21T00:08:05.815Z,9.20
2019-05-21T00:10:34.480Z,9.07
2019-05-21T00:13:03.057Z,9.60
2019-05-21T00:15:31.754Z,10.00
2019-05-21T00:18:00.324Z,9.50
2019-05-21T00:20:28.974Z,9.47
2019-05-21T00:22:57.630Z,9.93
2019-05-21T00:25:26.208Z,9.30
2019-05-21T00:27:57.767Z,9.97
2019-05-21T00:31:02.907Z,10.70
2019-05-21T00:34:07.754Z,11.63
2019-05-21T00:37:14.616Z,11.53
2019-05-21T00:40:19.481Z,11.20
2019-05-21T00:42:48.142Z,10.77
2019-05-21T00:45:16.796Z,11.67
2019-05-21T00:47:45.458Z,11.27
2019-05-21T00:50:14.202Z,9.33
2019-05-21T00:52:42.887Z,10.20
2019-05-21T00:55:11.635Z,11.17
2019-05-21T00:57:40.219Z,11.73
2019-05-21T01:00:09.746Z,11.10
2019-05-21T01:02:38.580Z,9.97
2019-05-21T01:05:07.332Z,10.17
2019-05-21T01:07:35.983Z,10.43
2019-05-21T01:10:06.549Z,10.67
2019-05-21T01:12:35.060Z,11.67
2019-05-21T01:15:05.710Z,10.80
2019-05-21T01:17:34.319Z,10.80
2019-05-21T01:20:02.964Z,9.60
2019-05-21T01:22:31.532Z,9.67
2019-05-21T01:25:00.101Z,9.90
2019-05-21T01:27:31.074Z,10.50
2019-05-21T01:29:59.582Z,10.30
2019-05-21T01:32:28.133Z,10.37
2019-05-21T01:34:56.791Z,11.10
2019-05-21T01:37:25.404Z,10.47
2019-05-21T01:39:53.973Z,11.40
2019-05-21T01:42:22.597Z,10.83
2019-05-21T01:44:51.243Z,10.93
2019-05-21T01:47:19.788Z,11.87
2019-05-21T01:49:48.434Z,12.53
2019-05-21T01:52:17.039Z,12.53
2019-05-21T01:54:45.652Z,12.30
2019-05-21T01:57:14.246Z,12.13
2019-05-21T01:59:42.820Z,11.33
2019-05-21T02:02:11.457Z,12.20
2019-05-21T02:04:39.929Z,12.17
2019-05-21T02:07:08.558Z,10.90
2019-05-21T02:09:38.843Z,11.50
2019-05-21T02:12:10.648Z,11.00
2019-05-21T02:14:37.714Z,10.13
2019-05-21T02:17:06.394Z,11.13
2019-05-21T02:19:37.366Z,10.50
2019-05-21T02:22:05.992Z,9.80
2019-05-21T02:24:34.556Z,10.07
2019-05-21T02:27:03.135Z,11.63
2019-05-21T02:29:31.646Z,10.97
2019-05-21T02:32:00.221Z,11.10
2019-05-21T02:34:28.898Z,10.77
2019-05-21T02:36:57.547Z,10.47
2019-05-21T02:39:26.055Z,9.50
2019-05-21T02:41:54.732Z,9.83
2019-05-21T02:44:23.286Z,10.77
2019-05-21T02:46:51.987Z,12.20
2019-05-21T02:49:20.635Z,12.27
2019-05-21T02:51:49.220Z,14.70
2019-05-21T02:54:17.805Z,13.57
2019-05-21T02:56:46.495Z,14.17
2019-05-21T02:59:15.082Z,15.10
2019-05-21T03:01:45.376Z,13.87
2019-05-21T03:04:14.032Z,13.53
2019-05-21T03:06:42.650Z,13.10
2019-05-21T03:09:11.363Z,13.37
2019-05-21T03:11:39.988Z,14.10
2019-05-21T03:14:08.606Z,15.50
2019-05-21T03:16:37.201Z,15.10
2019-05-21T03:19:05.861Z,15.37
2019-05-21T03:21:34.436Z,13.87
2019-05-21T03:24:02.975Z,13.77
2019-05-21T03:26:34.039Z,14.20
2019-05-21T03:29:02.628Z,12.50
2019-05-21T03:31:31.482Z,11.70
2019-05-21T03:34:00.161Z,11.27
2019-05-21T03:36:33.113Z,11.27
2019-05-21T03:38:59.094Z,12.40
2019-05-21T03:41:27.776Z,12.00
2019-05-21T03:43:56.428Z,11.60
2019-05-21T03:46:25.048Z,11.60
2019-05-21T03:48:53.685Z,11.87
2019-05-21T03:51:22.344Z,12.27
2019-05-21T03:53:51.005Z,12.03
2019-05-21T03:56:19.532Z,11.47
2019-05-21T03:58:48.113Z,10.40
2019-05-21T04:01:16.701Z,10.27
2019-05-21T04:03:45.352Z,10.03
2019-05-21T04:06:13.868Z,9.70
2019-05-21T04:08:42.440Z,9.07
2019-05-21T04:11:11.194Z,9.30
2019-05-21T04:13:39.850Z,8.27
2019-05-21T04:16:10.136Z,7.73
2019-05-21T04:18:46.175Z,8.27
2019-05-21T04:21:14.737Z,7.07
2019-05-21T04:23:43.367Z,7.20
2019-05-21T04:26:12.005Z,8.47
2019-05-21T04:28:40.567Z,8.27
2019-05-21T04:31:09.224Z,7.57
2019-05-21T04:33:37.801Z,7.40
2019-05-21T04:36:06.459Z,7.30
2019-05-21T04:38:35.090Z,8.17
2019-05-21T04:41:03.740Z,7.47
2019-05-21T04:43:32.260Z,7.23
2019-05-21T04:46:00.864Z,7.83
2019-05-21T04:48:29.438Z,7.50
2019-05-21T04:50:58.135Z,7.40
2019-05-21T04:53:26.798Z,7.37
2019-05-21T04:55:55.449Z,7.80
2019-05-21T04:58:24.088Z,7.13
2019-05-21T05:00:52.708Z,6.77
2019-05-21T05:03:21.348Z,5.97
2019-05-21T05:05:49.919Z,6.40
2019-05-21T05:08:18.600Z,6.10
2019-05-21T05:10:49.269Z,5.97
2019-05-21T05:13:17.642Z,6.03
2019-05-21T05:15:46.294Z,6.43
2019-05-21T05:18:14.856Z,6.60
2019-05-21T05:20:43.502Z,6.03
2019-05-21T05:23:12.078Z,6.10
2019-05-21T05:25:40.765Z,6.03
2019-05-21T05:28:09.351Z,6.50
2019-05-21T05:30:37.998Z,6.00
2019-05-21T05:33:06.691Z,6.00
2019-05-21T05:35:35.350Z,5.63
2019-05-21T05:38:04.029Z,5.17
2019-05-21T05:40:32.783Z,5.87
2019-05-21T05:43:04.127Z,5.13
2019-05-21T05:45:32.816Z,4.80
2019-05-21T05:48:01.388Z,4.53
2019-05-21T05:50:43.921Z,5.47
2019-05-21T05:53:12.565Z,4.00
2019-05-21T05:55:41.125Z,4.73
2019-05-21T05:58:09.712Z,4.00
2019-05-21T06:00:38.424Z,4.30
2019-05-21T06:03:07.075Z,3.67
2019-05-21T06:05:35.716Z,3.77
2019-05-21T06:08:04.739Z,4.20
2019-05-21T06:10:33.558Z,3.73
2019-05-21T06:13:02.243Z,4.77
2019-05-21T06:15:30.962Z,4.27
2019-05-21T06:17:59.527Z,3.93
2019-05-21T06:20:28.185Z,4.17
2019-05-21T06:22:56.820Z,3.50
2019-05-21T06:25:26.486Z,4.27
2019-05-21T06:27:55.196Z,3.80
2019-05-21T06:30:23.905Z,3.90
2019-05-21T06:32:52.461Z,3.63
2019-05-21T06:35:21.122Z,3.47
2019-05-21T06:37:49.818Z,3.43
2019-05-21T06:40:20.047Z,4.13
2019-05-21T06:42:48.538Z,3.63
2019-05-21T06:45:17.585Z,3.70
2019-05-21T06:47:46.127Z,3.90
2019-05-21T06:50:14.773Z,3.57
2019-05-21T06:52:45.884Z,3.57
2019-05-21T06:55:14.544Z,4.03
2019-05-21T06:57:43.040Z,3.60
2019-05-21T07:00:11.815Z,4.53
2019-05-21T07:02:40.604Z,3.13
2019-05-21T07:05:10.770Z,3.30
2019-05-21T07:07:40.311Z,3.70
2019-05-21T07:10:09.243Z,3.13
2019-05-21T07:12:37.905Z,3.87
2019-05-21T07:15:07.697Z,3.17
2019-05-21T07:17:36.256Z,3.53
2019-05-21T07:20:07.086Z,3.40
2019-05-21T07:22:35.816Z,2.80
2019-05-21T07:25:06.397Z,3.10
2019-05-21T07:27:35.033Z,3.37
2019-05-21T07:30:03.849Z,3.20
2019-05-21T07:32:32.507Z,3.10
2019-05-21T07:35:01.077Z,2.77
2019-05-21T07:37:29.743Z,2.57
2019-05-21T07:39:58.432Z,2.60
2019-05-21T07:42:26.997Z,2.47
2019-05-21T07:44:55.543Z,2.65
2019-05-21T07:47:24.228Z,3.00
2019-05-21T07:49:52.917Z,2.53
2019-05-21T07:52:21.458Z,2.17
2019-05-21T07:54:50.032Z,2.55
2019-05-21T07:57:18.715Z,2.30
2019-05-21T07:59:47.298Z,2.37
2019-05-21T08:02:15.937Z,1.22
2019-05-21T08:04:44.472Z,2.08
2019-05-21T08:07:13.102Z,1.70
2019-05-21T08:09:41.780Z,1.40
2019-05-21T08:12:27.824Z,1.00
2019-05-21T08:14:40.657Z,1.87
2019-05-21T08:17:09.278Z,1.75
2019-05-21T08:19:38.369Z,1.50
2019-05-21T08:22:07.032Z,1.75
2019-05-21T08:24:35.666Z,1.32
2019-05-21T08:27:04.729Z,1.40
2019-05-21T08:29:33.402Z,1.50
2019-05-21T08:32:01.902Z,1.20
2019-05-21T08:34:30.519Z,1.52
2019-05-21T08:36:59.184Z,1.40
2019-05-21T08:39:30.650Z,1.37
2019-05-21T08:41:59.310Z,1.52
2019-05-21T08:44:27.872Z,1.45
2019-05-21T08:46:56.586Z,1.12
2019-05-21T08:49:25.279Z,1.30
2019-05-21T08:51:53.836Z,1.85
2019-05-21T08:54:40.648Z,1.27
2019-05-21T08:57:18.061Z,2.00
2019-05-21T08:59:47.050Z,1.70
2019-05-21T09:02:15.784Z,1.20
2019-05-21T09:04:46.713Z,1.87
2019-05-21T09:07:14.824Z,1.55
2019-05-21T09:09:50.039Z,1.27
2019-05-21T09:12:13.761Z,1.47
2019-05-21T09:14:42.418Z,1.92
2019-05-21T09:17:11.080Z,1.82
2019-05-21T09:19:39.909Z,2.77
2019-05-21T09:22:08.595Z,1.52
2019-05-21T09:24:37.239Z,1.50
2019-05-21T09:27:05.878Z,1.55
2019-05-21T09:29:34.525Z,1.72
2019-05-21T09:32:03.246Z,1.30
2019-05-21T09:34:47.440Z,1.10
2019-05-21T09:37:02.248Z,1.00
2019-05-21T09:39:30.926Z,1.35
2019-05-21T09:41:59.614Z,1.37
2019-05-21T09:44:28.261Z,1.30
2019-05-21T09:46:56.938Z,1.40
2019-05-21T09:49:25.607Z,1.32
2019-05-21T09:51:54.148Z,1.77
2019-05-21T09:54:26.016Z,1.62
2019-05-21T09:56:54.595Z,1.40
2019-05-21T09:59:24.876Z,1.27
2019-05-21T10:01:55.114Z,1.55
2019-05-21T10:04:23.667Z,1.22
2019-05-21T10:06:52.302Z,1.20
2019-05-21T10:09:21.219Z,1.20
2019-05-21T10:11:49.858Z,1.37
2019-05-21T10:14:18.549Z,1.22
2019-05-21T10:16:47.272Z,1.10
2019-05-21T10:19:15.902Z,0.98
2019-05-21T10:21:44.471Z,1.22
2019-05-21T10:24:13.102Z,1.37
2019-05-21T10:26:41.750Z,1.30
2019-05-21T10:29:10.407Z,1.17
2019-05-21T10:31:39.039Z,1.32
2019-05-21T10:34:07.826Z,1.47
2019-05-21T10:36:36.411Z,1.00
2019-05-21T10:39:07.385Z,1.10
2019-05-21T10:41:38.822Z,1.50
2019-05-21T10:44:07.611Z,1.72
2019-05-21T10:46:36.257Z,1.67
2019-05-21T10:49:05.338Z,1.12
2019-05-21T10:51:33.972Z,1.15
2019-05-21T10:54:03.385Z,1.00
2019-05-21T10:56:46.706Z,1.10
2019-05-21T10:59:05.250Z,1.07
2019-05-21T11:01:44.552Z,1.30
2019-05-21T11:04:20.838Z,3.08
2019-05-21T11:06:49.461Z,1.00
2019-05-21T11:09:22.270Z,1.75
2019-05-21T11:11:50.956Z,1.47
2019-05-21T11:14:19.619Z,1.40
2019-05-21T11:16:48.295Z,1.00
2019-05-21T11:19:16.978Z,1.00
2019-05-21T11:21:48.363Z,1.35
2019-05-21T11:24:17.075Z,1.35
2019-05-21T11:26:45.707Z,1.20
2019-05-21T11:29:14.266Z,1.17
2019-05-21T11:31:55.717Z,1.15
2019-05-21T11:34:13.280Z,1.10
2019-05-21T11:36:41.971Z,1.52
2019-05-21T11:39:10.706Z,1.50
2019-05-21T11:41:39.375Z,1.95
2019-05-21T11:44:08.113Z,1.40
2019-05-21T11:46:36.824Z,1.65
2019-05-21T11:49:05.797Z,1.52
2019-05-21T11:51:34.440Z,2.35
2019-05-21T11:54:03.018Z,1.67
2019-05-21T11:56:31.585Z,1.92
2019-05-21T11:59:00.190Z,1.80
2019-05-21T12:01:28.801Z,1.87
2019-05-21T12:03:57.389Z,3.70
2019-05-21T12:06:26.050Z,2.33
2019-05-21T12:08:57.125Z,3.42
2019-05-21T12:11:24.855Z,3.05
2019-05-21T12:13:53.469Z,1.90
2019-05-21T12:16:22.138Z,2.58
2019-05-21T12:18:51.032Z,1.87
2019-05-21T12:21:19.622Z,2.10
2019-05-21T12:23:48.255Z,1.85
2019-05-21T12:26:16.958Z,2.05
2019-05-21T12:28:45.585Z,1.80
2019-05-21T12:31:14.240Z,1.47
2019-05-21T12:33:42.925Z,1.65
2019-05-21T12:36:11.497Z,2.58
2019-05-21T12:38:40.074Z,1.30
2019-05-21T12:41:08.640Z,1.62
2019-05-21T12:43:40.284Z,1.52
2019-05-21T12:46:08.947Z,1.27
2019-05-21T12:48:37.598Z,1.40
2019-05-21T12:51:06.237Z,1.00
2019-05-21T12:53:34.855Z,1.20
2019-05-21T12:56:03.499Z,1.12
2019-05-21T12:58:32.002Z,1.35
2019-05-21T13:01:00.706Z,1.12
2019-05-21T13:03:29.344Z,1.20
2019-05-21T13:05:58.038Z,1.25
2019-05-21T13:08:26.696Z,0.88
2019-05-21T13:10:55.352Z,0.95
2019-05-21T13:13:23.996Z,1.10
2019-05-21T13:15:52.645Z,1.32
2019-05-21T13:18:21.316Z,1.10
2019-05-21T13:20:49.936Z,1.22
2019-05-21T13:23:18.522Z,1.27
2019-05-21T13:25:47.137Z,1.25
2019-05-21T13:28:15.849Z,1.00
2019-05-21T13:30:44.447Z,1.45
2019-05-21T13:33:19.367Z,1.10
2019-05-21T13:35:46.238Z,0.98
2019-05-21T13:38:14.924Z,1.25
2019-05-21T13:40:43.729Z,1.40
2019-05-21T13:43:12.377Z,0.82
2019-05-21T13:45:41.037Z,1.20
2019-05-21T13:48:09.718Z,2.17
2019-05-21T13:50:38.291Z,1.12
2019-05-21T13:53:06.940Z,1.70
2019-05-21T13:55:35.514Z,1.30
2019-05-21T13:58:04.365Z,1.32
2019-05-21T14:00:35.039Z,1.80
2019-05-21T14:03:06.663Z,0.90
2019-05-21T14:05:35.294Z,0.80
2019-05-21T14:08:03.878Z,0.85
2019-05-21T14:10:32.521Z,0.78
2019-05-21T14:13:01.247Z,1.20
2019-05-21T14:15:30.006Z,1.07
2019-05-21T14:17:58.557Z,0.90
2019-05-21T14:20:27.190Z,0.68
2019-05-21T14:22:55.760Z,0.82
2019-05-21T14:25:24.468Z,0.82
2019-05-21T14:27:53.118Z,1.17
2019-05-21T14:30:21.881Z,1.10
2019-05-21T14:32:50.554Z,0.98
2019-05-21T14:35:19.169Z,1.10
2019-05-21T14:37:47.807Z,1.40
2019-05-21T14:40:31.011Z,0.98
2019-05-21T14:42:59.526Z,1.02
2019-05-21T14:45:18.309Z,1.40
2019-05-21T14:47:46.938Z,1.30
2019-05-21T14:50:16.627Z,1.32
2019-05-21T14:52:45.124Z,1.35
2019-05-21T14:55:13.775Z,1.07
2019-05-21T14:57:42.409Z,1.12
2019-05-21T15:00:22.428Z,1.05
2019-05-21T15:02:51.061Z,1.35
2019-05-21T15:05:22.518Z,1.60
2019-05-21T15:07:51.167Z,1.47
2019-05-21T15:10:19.806Z,1.05
2019-05-21T15:12:48.486Z,1.00
2019-05-21T15:15:17.304Z,1.20
2019-05-21T15:17:45.858Z,1.00
2019-05-21T15:20:34.943Z,0.78
2019-05-21T15:23:03.578Z,0.80
2019-05-21T15:25:32.362Z,1.72
2019-05-21T15:28:00.996Z,0.72
2019-05-21T15:30:29.564Z,0.60
2019-05-21T15:32:58.250Z,0.72
2019-05-21T15:35:26.896Z,0.65
2019-05-21T15:37:55.520Z,0.72
2019-05-21T15:40:24.145Z,0.70
2019-05-21T15:42:53.805Z,0.65
2019-05-21T15:45:22.837Z,0.53
2019-05-21T15:47:54.455Z,0.65
2019-05-21T15:50:23.139Z,0.75
2019-05-21T15:52:57.529Z,0.93
2019-05-21T15:55:26.140Z,0.60
2019-05-21T15:57:54.774Z,0.62
2019-05-21T16:00:23.789Z,0.75
2019-05-21T16:02:52.350Z,0.70
2019-05-21T16:05:21.061Z,0.85
2019-05-21T16:07:49.621Z,0.62
2019-05-21T16:10:18.269Z,0.70
2019-05-21T16:12:46.849Z,0.68
2019-05-21T16:15:15.526Z,0.80
2019-05-21T16:17:44.088Z,0.80
2019-05-21T16:20:17.103Z,0.50
2019-05-21T16:22:48.730Z,0.57
2019-05-21T16:25:17.379Z,0.50
2019-05-21T16:27:45.943Z,0.50
2019-05-21T16:30:14.723Z,0.50
2019-05-21T16:32:43.297Z,0.80
2019-05-21T16:35:11.916Z,0.50
2019-05-21T16:37:40.522Z,0.60
2019-05-21T16:40:09.370Z,0.60
2019-05-21T16:42:38.118Z,0.68
2019-05-21T16:45:07.655Z,1.25
2019-05-21T16:47:45.684Z,0.82
2019-05-21T16:50:10.547Z,0.60
2019-05-21T16:52:39.229Z,0.60
2019-05-21T16:55:08.630Z,0.70
2019-05-21T16:57:37.343Z,0.60
2019-05-21T17:00:07.783Z,0.60
2019-05-21T17:02:36.417Z,0.62
2019-05-21T17:05:07.039Z,0.88
2019-05-21T17:07:38.506Z,0.78
2019-05-21T17:10:07.958Z,0.98
2019-05-21T17:12:36.618Z,0.80
2019-05-21T17:15:12.085Z,1.00
2019-05-21T17:17:40.619Z,0.80
2019-05-21T17:20:09.746Z,0.93
2019-05-21T17:22:39.122Z,0.90
2019-05-21T17:25:08.555Z,0.80
2019-05-21T17:27:37.192Z,0.90
2019-05-21T17:30:09.830Z,1.10
2019-05-21T17:32:38.501Z,1.10
2019-05-21T17:35:07.913Z,1.07
2019-05-21T17:37:36.544Z,0.93
2019-05-21T17:40:05.989Z,1.10
2019-05-21T17:42:34.638Z,1.43
2019-05-21T17:45:04.164Z,1.00
2019-05-21T17:47:32.778Z,1.30
2019-05-21T17:50:01.410Z,1.40
2019-05-21T17:52:30.066Z,1.00
2019-05-21T17:54:58.805Z,1.27
2019-05-21T17:57:29.130Z,1.30
2019-05-21T17:59:57.703Z,1.33
2019-05-21T18:02:28.138Z,1.30
2019-05-21T18:05:00.166Z,1.43
2019-05-21T18:07:28.889Z,1.30
2019-05-21T18:09:58.329Z,1.30
2019-05-21T18:12:31.929Z,1.37
2019-05-21T18:14:58.349Z,1.70
2019-05-21T18:17:28.660Z,1.43
2019-05-21T18:19:57.225Z,1.57
2019-05-21T18:22:26.695Z,1.47
2019-05-21T18:24:55.290Z,1.47
2019-05-21T18:27:24.126Z,1.43
2019-05-21T18:29:52.734Z,1.10
2019-05-21T18:32:21.473Z,1.30
2019-05-21T18:34:53.016Z,1.30
2019-05-21T18:37:21.629Z,1.30
2019-05-21T18:39:50.260Z,1.30
2019-05-21T18:42:22.753Z,1.13
2019-05-21T18:44:51.553Z,1.40
2019-05-21T18:47:20.365Z,1.03
2019-05-21T18:49:48.938Z,1.23
2019-05-21T18:52:17.513Z,1.20
2019-05-21T18:54:47.955Z,1.20
2019-05-21T18:57:16.708Z,1.20
2019-05-21T18:59:45.274Z,1.40
2019-05-21T19:02:14.986Z,1.40
2019-05-21T19:04:43.635Z,1.40
2019-05-21T19:07:15.565Z,1.40
2019-05-21T19:09:44.206Z,1.27
2019-05-21T19:12:12.775Z,0.90
2019-05-21T19:14:45.045Z,1.50
2019-05-21T19:17:18.784Z,1.17
2019-05-21T19:19:47.371Z,2.13
2019-05-21T19:22:15.932Z,1.47
2019-05-21T19:24:44.600Z,1.93
2019-05-21T19:27:13.233Z,1.70
2019-05-21T19:29:41.903Z,1.50
2019-05-21T19:32:10.539Z,1.50
2019-05-21T19:34:39.035Z,1.57
2019-05-21T19:37:10.741Z,1.67
2019-05-21T19:39:39.723Z,2.30
2019-05-21T19:42:08.446Z,2.30
2019-05-21T19:44:37.051Z,1.73
2019-05-21T19:47:05.617Z,2.40
2019-05-21T19:49:34.252Z,2.37
2019-05-21T19:52:02.886Z,1.90
2019-05-21T19:54:31.564Z,2.10
2019-05-21T19:57:00.194Z,1.90
2019-05-21T19:59:28.770Z,2.60
2019-05-21T20:01:57.274Z,2.10
2019-05-21T20:04:26.483Z,2.27
2019-05-21T20:06:55.223Z,1.83
2019-05-21T20:09:26.914Z,2.20
2019-05-21T20:11:58.518Z,2.50
2019-05-21T20:14:27.761Z,2.07
2019-05-21T20:16:56.417Z,2.77
2019-05-21T20:19:25.351Z,2.67
2019-05-21T20:21:54.603Z,2.70
2019-05-21T20:24:24.115Z,3.57
2019-05-21T20:26:52.683Z,3.00
2019-05-21T20:29:22.063Z,2.70
2019-05-21T20:31:50.626Z,3.17
2019-05-21T20:34:19.326Z,2.57
2019-05-21T20:36:48.110Z,3.43
2019-05-21T20:39:18.549Z,2.47
2019-05-21T20:41:48.070Z,2.87
2019-05-21T20:44:18.289Z,3.57
2019-05-21T20:46:47.003Z,2.93
2019-05-21T20:49:16.247Z,2.83
2019-05-21T20:51:45.035Z,4.70
2019-05-21T20:54:16.324Z,4.70
2019-05-21T20:56:45.140Z,4.57
2019-05-21T20:59:13.777Z,4.47
2019-05-21T21:01:43.798Z,3.37
2019-05-21T21:04:12.709Z,3.67
2019-05-21T21:06:41.867Z,3.80
2019-05-21T21:09:11.978Z,4.00
2019-05-21T21:11:41.686Z,3.50
2019-05-21T21:14:17.963Z,3.60
2019-05-21T21:16:43.630Z,2.43
2019-05-21T21:19:12.537Z,2.20
2019-05-21T21:21:41.964Z,2.13
2019-05-21T21:24:10.805Z,2.80
2019-05-21T21:26:39.369Z,2.10
2019-05-21T21:29:09.203Z,2.37
2019-05-21T21:31:37.919Z,2.50
2019-05-21T21:34:06.570Z,2.57
2019-05-21T21:36:35.681Z,3.13
2019-05-21T21:39:06.638Z,2.80
2019-05-21T21:41:40.054Z,3.23
2019-05-21T21:44:08.690Z,2.90
2019-05-21T21:46:37.323Z,3.07
2019-05-21T21:49:06.344Z,3.10
2019-05-21T21:51:35.540Z,3.30
2019-05-21T21:54:04.480Z,3.30
2019-05-21T21:56:33.133Z,2.93
2019-05-21T21:59:01.828Z,3.13
2019-05-21T22:01:54.497Z,3.07
2019-05-21T22:04:28.116Z,2.80
2019-05-21T22:06:56.793Z,2.70
2019-05-21T22:09:27.053Z,3.07
2019-05-21T22:11:56.858Z,4.10
2019-05-21T22:14:26.331Z,4.10
2019-05-21T22:16:58.719Z,4.40
2019-05-21T22:19:27.369Z,6.47
2019-05-21T22:21:57.085Z,7.43
2019-05-21T22:24:26.196Z,7.73
2019-05-21T22:26:54.786Z,9.13
2019-05-21T22:29:23.370Z,8.27
2019-05-21T22:31:52.771Z,7.80
2019-05-21T22:34:21.504Z,8.60
2019-05-21T22:36:50.144Z,7.97
2019-05-21T22:39:20.482Z,6.53
2019-05-21T22:41:49.065Z,6.67
2019-05-21T22:44:17.712Z,7.63
2019-05-21T22:46:48.058Z,8.43
2019-05-21T22:49:16.676Z,9.40
2019-05-21T22:51:45.340Z,8.97
2019-05-21T22:54:13.992Z,8.50
2019-05-21T22:56:42.739Z,7.50
2019-05-21T22:59:11.304Z,7.50
2019-05-21T23:01:40.040Z,7.37
2019-05-21T23:04:09.254Z,7.40
2019-05-21T23:06:38.245Z,7.07
2019-05-21T23:09:08.454Z,4.43
2019-05-21T23:11:37.203Z,4.90
2019-05-21T23:14:05.955Z,5.03
2019-05-21T23:16:34.696Z,4.93
2019-05-21T23:19:03.915Z,4.60
2019-05-21T23:21:34.338Z,5.00
2019-05-21T23:24:03.588Z,5.50
2019-05-21T23:26:33.735Z,4.37
2019-05-21T23:29:02.741Z,5.33
2019-05-21T23:31:32.357Z,5.80
2019-05-21T23:36:47.684Z,3.70
2019-05-21T23:39:17.943Z,3.30
2019-05-21T23:41:46.744Z,3.97
2019-05-21T23:44:15.592Z,3.50
2019-05-21T23:46:44.344Z,2.93
2019-05-21T23:49:12.918Z,3.00
2019-05-21T23:51:41.576Z,3.40
2019-05-21T23:54:10.281Z,3.30
2019-05-21T23:56:38.929Z,3.80
2019-05-21T23:59:07.940Z,4.90
